Pomfret Landing, Connecticut
Current Conditions -  °F | °C
As of 11:36 PM on Wednesday 26 Nov 2014 (Local Time) from KIJD Reporting Station
Light Snow Light Snow  
Wind Chill: 27°   Ceiling: 1300
Heat Index: 34°   Visibility: 2.5mi
Dew Point: 31°   Wind: 9mph
Humidity: 89%   Direction: 340°NNW
Pressure: 29.72"   Gusts: NA
Location:  41.869°N, 71.9903°W
Report Text: KIJD 270436Z AUTO 34008KT 2 1/2SM -SN BR BKN013 OVC021 01/M01 A2972 RMK AO2 P0001 T00111006
Loading
Personal Weather Stations






























Interactive Weather Map New forecast layout! Learn more

10-Day Weather Forecast

Advertisements
Track Severe Weather on mobile